Pagina principală
METAR-TAF:

METAR-TAF

Aeroporturi :

Brenner Field

Falls City, Nebraska, Statele Unite ale Americii

Latitudine: 40-04-44N, longitudine: 095-35-31W, elevație: 300 m

Observații meteo curente

Raportul a fost făcut în urmă cu 53 de minute, la 15:53 UTC
Vânt 6 kt de la Vest/Nord-vest
Temperatură 25°C
Umiditate 41%
Presiune 1020 hPa
Vizibilitate: 16.1 km
Cer senin

METAR: KFNB 281553Z AUTO 29006KT 10SM CLR 25/11 A3013 RMK AO2 SLP197 T02500106

Ora: 11:46 (16:46 UTC)


TAF: lipsă

Observații și prognoze meteo pentru peste 4.000 de aeroporturi (rapoarte METAR și TAF).

Stațiile disponibile sunt reprezentate pe hartă prin puncte galbene și roșii.

Țineți indicatorul mouse-ului pe punctul dorit pentru a vedea denumirea stației.

Apoi, faceți clic pentru a vedea observațiile și prognozele meteorologice.

Pentru a schimba harta: Pentru mărire, faceți clic pe butoanele verzi cu cruce neagră; pentru micșorare, pe butonul verde cu o liniuță; pentru hărți învecinate, pe săgețile verzi.


METAR-TAF: